createdAt,value
2022-07-28T19:56:18.493Z,21.53
2022-07-28T19:57:20.766Z,21.54
2022-07-28T19:58:23.592Z,21.52
2022-07-28T19:59:25.699Z,21.49
2022-07-28T20:00:27.985Z,21.51
2022-07-28T20:01:31.540Z,21.56
2022-07-28T20:02:33.782Z,21.64
2022-07-28T20:04:01.759Z,21.64
2022-07-28T20:04:57.990Z,21.50
2022-07-28T20:06:00.417Z,21.45
2022-07-28T20:07:02.800Z,21.36
2022-07-28T20:08:05.988Z,21.38
2022-07-28T20:09:08.286Z,21.48
2022-07-28T20:10:10.644Z,21.38
2022-07-28T20:11:13.918Z,21.38
2022-07-28T20:12:16.029Z,21.44
2022-07-28T20:13:18.082Z,21.35
2022-07-28T20:14:20.111Z,21.30
2022-07-28T20:15:22.807Z,21.38
2022-07-28T20:16:25.093Z,21.44
2022-07-28T20:17:38.141Z,21.56
2022-07-28T20:18:44.366Z,21.57
2022-07-28T20:19:46.495Z,21.57
2022-07-28T20:20:49.102Z,21.59
2022-07-28T20:21:51.242Z,21.56
2022-07-28T20:22:53.523Z,21.52
2022-07-28T20:23:57.424Z,21.55
2022-07-28T20:24:59.512Z,21.60
2022-07-28T20:26:01.572Z,21.61
2022-07-28T20:27:08.205Z,21.80
2022-07-28T20:28:11.219Z,21.59
2022-07-28T20:29:13.350Z,21.63
2022-07-28T20:30:22.936Z,21.47
2022-07-28T20:31:25.083Z,21.60
2022-07-28T20:32:27.368Z,21.66
2022-07-28T20:33:30.370Z,21.69
2022-07-28T20:34:32.511Z,21.58
2022-07-28T20:35:34.695Z,21.60
2022-07-28T20:36:36.728Z,21.51
2022-07-28T20:37:39.074Z,21.52
2022-07-28T20:38:41.197Z,21.67
2022-07-28T20:39:45.336Z,21.59
2022-07-28T20:40:47.875Z,21.71
2022-07-28T20:41:50.135Z,21.58
2022-07-28T20:42:54.147Z,21.61
2022-07-28T20:44:18.760Z,21.60
2022-07-28T20:45:18.663Z,21.40
2022-07-28T20:46:24.874Z,21.52
2022-07-28T20:47:28.195Z,21.43
2022-07-28T20:48:30.445Z,21.38
2022-07-28T20:49:33.240Z,21.43
2022-07-28T20:50:35.563Z,21.30
2022-07-28T20:51:37.829Z,21.33
2022-07-28T20:52:39.842Z,21.47
2022-07-28T20:53:41.961Z,21.34
2022-07-28T20:54:44.015Z,21.38
2022-07-28T20:55:46.112Z,21.36
2022-07-28T20:56:48.433Z,21.36
2022-07-28T20:57:53.955Z,21.30
2022-07-28T20:58:56.335Z,21.34
2022-07-28T20:59:58.404Z,21.19
2022-07-28T21:01:03.248Z,21.28
2022-07-28T21:02:05.495Z,21.28
2022-07-28T21:03:08.049Z,21.14
2022-07-28T21:04:11.349Z,21.15
2022-07-28T21:05:23.902Z,21.16
2022-07-28T21:06:35.707Z,21.05
2022-07-28T21:08:00.061Z,21.12
2022-07-28T21:09:02.917Z,20.97
2022-07-28T21:10:06.253Z,20.98
2022-07-28T21:11:08.399Z,20.96
2022-07-28T21:12:10.625Z,21.04
2022-07-28T21:13:12.799Z,20.90
2022-07-28T21:14:15.014Z,20.95
2022-07-28T21:15:17.292Z,21.11
2022-07-28T21:16:19.544Z,20.98
2022-07-28T21:17:21.666Z,21.00
2022-07-28T21:18:24.289Z,21.13
2022-07-28T21:19:26.438Z,21.07
2022-07-28T21:20:28.619Z,20.96
2022-07-28T21:21:30.702Z,21.08
2022-07-28T21:22:32.925Z,21.06
2022-07-28T21:23:35.027Z,20.97
2022-07-28T21:24:37.218Z,21.03
2022-07-28T21:25:39.350Z,21.00
2022-07-28T21:26:42.903Z,21.00
2022-07-28T21:28:03.668Z,21.07
2022-07-28T21:29:12.338Z,21.06
2022-07-28T21:30:14.644Z,20.86
2022-07-28T21:31:17.827Z,21.03
2022-07-28T21:32:19.898Z,21.05
2022-07-28T21:33:23.378Z,20.99
2022-07-28T21:34:25.961Z,20.96
2022-07-28T21:35:28.151Z,20.92
2022-07-28T21:36:30.418Z,20.99
2022-07-28T21:37:32.542Z,21.14
2022-07-28T21:38:34.846Z,21.15
2022-07-28T21:39:36.973Z,20.98
2022-07-28T21:40:39.180Z,21.01
2022-07-28T21:41:41.354Z,21.07
2022-07-28T21:42:47.117Z,21.02
2022-07-28T21:43:49.215Z,20.91
2022-07-28T21:44:54.233Z,21.15
2022-07-28T21:45:58.699Z,21.23
2022-07-28T21:47:00.750Z,21.22
2022-07-28T21:48:02.882Z,21.25
2022-07-28T21:49:06.175Z,21.12
2022-07-28T21:50:09.135Z,21.15
2022-07-28T21:51:19.099Z,21.05
2022-07-28T21:52:23.630Z,21.02
2022-07-28T21:53:26.217Z,21.19
2022-07-28T21:54:28.356Z,21.08
2022-07-28T21:55:30.774Z,20.99
2022-07-28T21:56:34.707Z,20.98
2022-07-28T21:57:37.501Z,20.97
2022-07-28T21:58:43.041Z,21.00
2022-07-28T21:59:45.528Z,20.98
2022-07-28T22:00:50.967Z,20.85
2022-07-28T22:01:53.117Z,20.96
2022-07-28T22:02:55.409Z,21.00
2022-07-28T22:03:57.724Z,21.11
2022-07-28T22:05:00.003Z,20.83
2022-07-28T22:06:04.958Z,20.95
2022-07-28T22:07:09.271Z,20.77
2022-07-28T22:08:11.428Z,20.91
2022-07-28T22:09:16.566Z,21.01
2022-07-28T22:10:18.989Z,21.04
2022-07-28T22:11:23.014Z,21.04
2022-07-28T22:12:25.458Z,21.05
2022-07-28T22:13:28.271Z,21.02
2022-07-28T22:14:32.522Z,20.94
2022-07-28T22:15:34.716Z,20.84
2022-07-28T22:16:37.033Z,20.80
2022-07-28T22:17:39.204Z,20.77
2022-07-28T22:18:45.852Z,20.83
2022-07-28T22:19:48.085Z,20.74
2022-07-28T22:20:50.441Z,20.80
2022-07-28T22:21:54.153Z,20.80
2022-07-28T22:22:56.641Z,20.72
2022-07-28T22:23:58.711Z,20.76
2022-07-28T22:25:00.994Z,20.66
2022-07-28T22:26:03.537Z,20.66
2022-07-28T22:27:05.815Z,20.75
2022-07-28T22:28:08.665Z,20.71
2022-07-28T22:29:11.257Z,20.71
2022-07-28T22:30:13.584Z,20.57
2022-07-28T22:31:16.303Z,20.44
2022-07-28T22:32:28.129Z,20.59
2022-07-28T22:33:31.243Z,20.47
2022-07-28T22:34:34.107Z,20.46
2022-07-28T22:35:36.276Z,20.55
2022-07-28T22:36:39.095Z,20.45
2022-07-28T22:37:41.403Z,20.52
2022-07-28T22:38:43.507Z,20.42
2022-07-28T22:39:45.648Z,20.53
2022-07-28T22:40:47.865Z,20.64
2022-07-28T22:41:52.579Z,20.73
2022-07-28T22:42:56.893Z,20.55
2022-07-28T22:43:58.946Z,20.73
2022-07-28T22:45:05.645Z,20.72
2022-07-28T22:46:10.417Z,20.60
2022-07-28T22:47:12.540Z,20.77
2022-07-28T22:48:14.589Z,20.79
2022-07-28T22:49:16.885Z,20.57
2022-07-28T22:50:19.323Z,20.57
2022-07-28T22:51:21.830Z,20.41
2022-07-28T22:52:30.245Z,20.49
2022-07-28T22:53:32.309Z,20.48
2022-07-28T22:54:38.534Z,20.44
2022-07-28T22:55:41.511Z,20.37
2022-07-28T22:56:44.942Z,20.42
2022-07-28T22:57:47.520Z,20.52
2022-07-28T22:58:50.326Z,20.28
2022-07-28T22:59:54.040Z,20.26
2022-07-28T23:00:56.780Z,20.25
2022-07-28T23:02:01.476Z,20.27
2022-07-28T23:03:05.851Z,20.24
2022-07-28T23:04:09.695Z,20.19
2022-07-28T23:05:12.371Z,20.16
2022-07-28T23:06:15.036Z,20.16
2022-07-28T23:07:17.659Z,20.07
2022-07-28T23:08:20.923Z,20.10
2022-07-28T23:09:23.406Z,20.10
2022-07-28T23:10:26.082Z,20.04
2022-07-28T23:11:28.831Z,20.08
2022-07-28T23:12:31.369Z,20.10
2022-07-28T23:13:33.945Z,20.22
2022-07-28T23:14:36.716Z,20.02
2022-07-28T23:15:41.492Z,20.08
2022-07-28T23:16:44.478Z,20.08
2022-07-28T23:17:47.697Z,20.19
2022-07-28T23:18:50.476Z,20.17
2022-07-28T23:19:58.376Z,20.00
2022-07-28T23:21:00.874Z,20.04
2022-07-28T23:22:03.607Z,19.97
2022-07-28T23:23:06.773Z,20.05
2022-07-28T23:24:09.421Z,20.02
2022-07-28T23:25:12.254Z,19.94
2022-07-28T23:26:14.868Z,20.02
2022-07-28T23:27:17.420Z,19.93
2022-07-28T23:28:20.011Z,19.94
2022-07-28T23:29:22.928Z,20.02
2022-07-28T23:30:25.648Z,20.06
2022-07-28T23:31:28.434Z,20.22
2022-07-28T23:32:31.131Z,20.11
2022-07-28T23:33:55.917Z,20.08
2022-07-28T23:35:06.157Z,19.99
2022-07-28T23:36:14.770Z,20.02
2022-07-28T23:37:29.479Z,20.04
2022-07-28T23:38:32.127Z,20.05
2022-07-28T23:39:34.865Z,20.09
2022-07-28T23:40:37.485Z,20.13
2022-07-28T23:41:40.415Z,20.08
2022-07-28T23:42:42.962Z,20.02
2022-07-28T23:43:45.510Z,20.06
2022-07-28T23:44:48.074Z,20.16
2022-07-28T23:45:50.558Z,20.19
2022-07-28T23:46:54.046Z,20.23
2022-07-28T23:47:58.828Z,20.31
2022-07-28T23:49:01.830Z,20.16
2022-07-28T23:50:05.738Z,20.11
2022-07-28T23:51:08.619Z,20.17
2022-07-28T23:52:11.237Z,20.28
2022-07-28T23:53:13.784Z,20.39
2022-07-28T23:54:17.180Z,20.35
2022-07-28T23:55:20.200Z,20.36
2022-07-28T23:56:22.707Z,20.34
2022-07-28T23:57:25.249Z,20.35
2022-07-28T23:58:34.448Z,20.44
2022-07-28T23:59:37.005Z,20.33
